Ashuelot, New Hampshire
Current Conditions -  °F | °C
As of 2:55 AM on Friday 24 Oct 2014 (Local Time) from KEEN Reporting Station
Overcast Overcast  
Wind Chill: 45°   Ceiling: 1300
Heat Index: 48°   Visibility: 6mi
Dew Point: 39°   Wind: 8mph
Humidity: 71%   Direction: 360°N
Pressure: 29.73"   Gusts: NA
Location:  42.78°N, 72.42°W
Report Text: KEEN 240655Z AUTO 36007KT 6SM OVC013 09/04 A2973 RMK AO1
Loading
Personal Weather Stations






























Interactive Weather Map
Tropical Storm Tracking
New forecast layout! Learn more

10-Day Weather Forecast

Advertisements
Track Severe Weather on mobile